Aviation Digital Data Service (ADDS)

Output produced by METARs form (1054 UTC 30 March 2017)
found at http://aviationweather.gov/adds/metars/
 
KHUL 300520Z 3006/3106 34009KT P6SM OVC090 
     TEMPO 3006/3008 OVC030 
     FM301500 34012G22KT P6SM SCT035 
     FM310000 34006KT P6SM SKC